Time;durP1;ratioP1;P1;durP2;ratioP2;P2;SDS_P1;SDS_P2;PMS_P1;PMS_P2;Temp;Humidity;BMP_temperature;BMP_pressure;BME280_temperature;BME280_humidity;BME280_pressure;Samples;Min_cycle;Max_cycle;Signal;HPM_P1;HPM_P2
2023/08/23 00:01:50;;;;;;;0.00;0.00;;;;;;;;;;5072505;28;20044;-77
2023/08/23 00:04:19;;;;;;;0.00;0.00;;;;;;;;;;5071753;28;20045;-77
2023/08/23 00:06:45;;;;;;;0.00;0.00;;;;;;;;;;5071356;28;20087;-77
2023/08/23 00:09:10;;;;;;;0.00;0.00;;;;;;;;;;5072711;28;20060;-78
2023/08/23 00:11:36;;;;;;;0.00;0.00;;;;;;;;;;5072248;28;20555;-78
2023/08/23 00:14:03;;;;;;;0.00;0.00;;;;;;;;;;5088432;28;20040;-77
2023/08/23 00:16:29;;;;;;;0.00;0.00;;;;;;;;;;5070837;28;20132;-77
2023/08/23 00:18:55;;;;;;;0.00;0.00;;;;;;;;;;5072702;28;20131;-77
2023/08/23 00:21:21;;;;;;;0.00;0.00;;;;;;;;;;5072281;28;20499;-77
2023/08/23 00:23:47;;;;;;;0.00;0.00;;;;;;;;;;5072744;28;20115;-78
2023/08/23 00:26:13;;;;;;;0.00;0.00;;;;;;;;;;5072175;28;20424;-78
2023/08/23 00:28:40;;;;;;;0.00;0.00;;;;;;;;;;5087887;28;20052;-77
2023/08/23 00:31:06;;;;;;;0.00;0.00;;;;;;;;;;5071927;28;20519;-77
2023/08/23 00:33:32;;;;;;;0.00;0.00;;;;;;;;;;5071252;28;20041;-78
2023/08/23 00:35:58;;;;;;;0.00;0.00;;;;;;;;;;5072097;28;20135;-77
2023/08/23 00:38:24;;;;;;;0.00;0.00;;;;;;;;;;5072318;28;20504;-77
2023/08/23 00:40:50;;;;;;;0.00;0.00;;;;;;;;;;5070867;28;20397;-77
2023/08/23 00:43:16;;;;;;;0.00;0.00;;;;;;;;;;5072374;28;20078;-78
2023/08/23 00:45:42;;;;;;;0.00;0.00;;;;;;;;;;5087871;28;20047;-77
2023/08/23 00:48:09;;;;;;;0.00;0.00;;;;;;;;;;5070630;28;20041;-77
2023/08/23 00:50:36;;;;;;;0.00;0.00;;;;;;;;;;5072210;28;20082;-78
2023/08/23 00:53:02;;;;;;;0.00;0.00;;;;;;;;;;5070916;28;20047;-77
2023/08/23 00:55:28;;;;;;;0.00;0.00;;;;;;;;;;5071917;28;20132;-77
2023/08/23 00:57:54;;;;;;;0.00;0.00;;;;;;;;;;5072385;28;20037;-77
2023/08/23 01:00:21;;;;;;;0.00;0.00;;;;;;;;;;5072056;28;20049;-77
2023/08/23 01:02:47;;;;;;;0.00;0.00;;;;;;;;;;5071998;28;20063;-78
2023/08/23 01:05:13;;;;;;;0.00;0.00;;;;;;;;;;5072125;28;20115;-77
2023/08/23 01:07:43;;;;;;;0.20;0.10;;;;;;;;;;5070766;28;20465;-78
2023/08/23 01:10:12;;;;;;;0.00;0.00;;;;;;;;;;5091019;28;20044;-77
2023/08/23 01:12:43;;;;;;;0.00;0.00;;;;;;;;;;5075617;28;20055;-77
2023/08/23 01:15:12;;;;;;;0.00;0.00;;;;;;;;;;5091868;28;20047;-78
2023/08/23 01:17:43;;;;;;;0.00;0.00;;;;;;;;;;5074459;28;20387;-77
2023/08/23 01:20:10;;;;;;;0.00;0.00;;;;;;;;;;5074411;28;20040;-77
2023/08/23 01:22:39;;;;;;;0.00;0.00;;;;;;;;;;5075471;28;20036;-77
2023/08/23 01:25:05;;;;;;;0.00;0.00;;;;;;;;;;5075707;28;20036;-77
2023/08/23 01:27:32;;;;;;;0.00;0.00;;;;;;;;;;5091350;28;20036;-77
2023/08/23 01:29:58;;;;;;;0.10;0.00;;;;;;;;;;5074173;28;20041;-77
2023/08/23 01:32:30;;;;;;;0.00;0.00;;;;;;;;;;5075604;28;20068;-78
2023/08/23 01:35:00;;;;;;;0.00;0.00;;;;;;;;;;5074124;28;20110;-77
2023/08/23 01:37:27;;;;;;;0.00;0.00;;;;;;;;;;5075323;28;20091;-77
2023/08/23 01:39:54;;;;;;;0.00;0.00;;;;;;;;;;5090883;28;20028;-77
2023/08/23 01:42:21;;;;;;;0.00;0.00;;;;;;;;;;5090905;28;20039;-77
2023/08/23 01:44:47;;;;;;;0.00;0.00;;;;;;;;;;5091013;28;20060;-77
2023/08/23 01:47:14;;;;;;;0.00;0.00;;;;;;;;;;5074983;28;20075;-77
2023/08/23 01:49:40;;;;;;;0.00;0.00;;;;;;;;;;5090938;28;20041;-77
2023/08/23 01:52:06;;;;;;;0.00;0.00;;;;;;;;;;5073622;28;20475;-77
2023/08/23 01:54:32;;;;;;;0.00;0.00;;;;;;;;;;5073585;28;20321;-77
2023/08/23 01:56:58;;;;;;;0.00;0.00;;;;;;;;;;5090471;28;20540;-77
2023/08/23 01:59:24;;;;;;;0.00;0.00;;;;;;;;;;5075057;28;20045;-77
2023/08/23 02:01:50;;;;;;;0.00;0.00;;;;;;;;;;5073537;28;20036;-77
2023/08/23 02:04:19;;;;;;;0.10;0.00;;;;;;;;;;5073938;28;20044;-76
2023/08/23 02:06:45;;;;;;;0.00;0.00;;;;;;;;;;5073719;28;20380;-77
2023/08/23 02:09:11;;;;;;;0.00;0.00;;;;;;;;;;5074920;28;20047;-77
2023/08/23 02:11:37;;;;;;;0.00;0.00;;;;;;;;;;5074799;28;20048;-77
2023/08/23 02:14:03;;;;;;;0.00;0.00;;;;;;;;;;5073308;28;20044;-77
2023/08/23 02:16:29;;;;;;;0.00;0.00;;;;;;;;;;5073327;28;20439;-77
2023/08/23 02:18:55;;;;;;;0.00;0.00;;;;;;;;;;5074499;28;20036;-77
2023/08/23 02:21:21;;;;;;;0.00;0.00;;;;;;;;;;5073669;28;20101;-77
2023/08/23 02:23:47;;;;;;;0.00;0.00;;;;;;;;;;5074371;28;20476;-77
2023/08/23 02:26:13;;;;;;;0.40;0.10;;;;;;;;;;5073194;28;20045;-77
2023/08/23 02:28:39;;;;;;;0.00;0.00;;;;;;;;;;5074207;28;20040;-77
2023/08/23 02:31:05;;;;;;;0.00;0.00;;;;;;;;;;5073322;28;20059;-77
2023/08/23 02:33:31;;;;;;;0.00;0.00;;;;;;;;;;5072862;28;20551;-77
2023/08/23 02:35:57;;;;;;;0.00;0.00;;;;;;;;;;5072957;28;20045;-77
2023/08/23 02:38:23;;;;;;;0.00;0.00;;;;;;;;;;5073067;28;20495;-77
2023/08/23 02:40:49;;;;;;;0.00;0.00;;;;;;;;;;5074413;28;20048;-77
2023/08/23 02:43:15;;;;;;;0.00;0.00;;;;;;;;;;5072758;28;20458;-77
2023/08/23 02:45:42;;;;;;;0.00;0.00;;;;;;;;;;5072870;28;20049;-77
2023/08/23 02:48:08;;;;;;;0.00;0.00;;;;;;;;;;5089533;28;20084;-77
2023/08/23 02:50:34;;;;;;;0.00;0.00;;;;;;;;;;5074057;28;20040;-77
2023/08/23 02:53:00;;;;;;;0.00;0.00;;;;;;;;;;5073969;28;20050;-77
2023/08/23 02:55:26;;;;;;;0.00;0.00;;;;;;;;;;5074062;28;20040;-77
2023/08/23 02:57:52;;;;;;;0.00;0.00;;;;;;;;;;5072378;28;20498;-77
2023/08/23 03:00:18;;;;;;;0.00;0.00;;;;;;;;;;5089429;28;20116;-77
2023/08/23 03:02:44;;;;;;;0.00;0.00;;;;;;;;;;5073713;28;20047;-77
2023/08/23 03:05:10;;;;;;;0.00;0.00;;;;;;;;;;5073663;28;20036;-77
2023/08/23 03:07:36;;;;;;;0.00;0.00;;;;;;;;;;5072353;28;20395;-77
2023/08/23 03:10:02;;;;;;;0.00;0.00;;;;;;;;;;5072267;28;20239;-77
2023/08/23 03:12:28;;;;;;;0.10;0.00;;;;;;;;;;5072130;28;20052;-77
2023/08/23 03:14:54;;;;;;;0.00;0.00;;;;;;;;;;5073432;28;20505;-77
2023/08/23 03:17:20;;;;;;;0.00;0.00;;;;;;;;;;5072083;28;20041;-77
2023/08/23 03:19:46;;;;;;;0.00;0.00;;;;;;;;;;5072155;28;20368;-77
2023/08/23 03:22:12;;;;;;;0.00;0.00;;;;;;;;;;5072110;28;20107;-77
2023/08/23 03:24:38;;;;;;;0.00;0.00;;;;;;;;;;5071695;28;20230;-77
2023/08/23 03:27:04;;;;;;;0.00;0.00;;;;;;;;;;5073465;28;20048;-77
2023/08/23 03:29:30;;;;;;;0.00;0.00;;;;;;;;;;5071770;28;20047;-77
2023/08/23 03:31:56;;;;;;;0.00;0.00;;;;;;;;;;5073245;28;20427;-77
2023/08/23 03:34:22;;;;;;;0.00;0.00;;;;;;;;;;5072746;28;20205;-77
2023/08/23 03:36:49;;;;;;;0.00;0.00;;;;;;;;;;5073295;28;20033;-77
2023/08/23 03:39:15;;;;;;;0.00;0.00;;;;;;;;;;5071854;28;20037;-77
2023/08/23 03:41:41;;;;;;;0.00;0.00;;;;;;;;;;5073136;28;20476;-77
2023/08/23 03:44:07;;;;;;;0.00;0.00;;;;;;;;;;5072845;28;20048;-77
2023/08/23 03:46:33;;;;;;;0.00;0.00;;;;;;;;;;5071877;28;20051;-77
2023/08/23 03:48:59;;;;;;;0.00;0.00;;;;;;;;;;5071603;28;20045;-77
2023/08/23 03:51:25;;;;;;;0.00;0.00;;;;;;;;;;5073030;28;20040;-77
2023/08/23 03:53:51;;;;;;;0.00;0.00;;;;;;;;;;5071352;28;20399;-77
2023/08/23 03:56:17;;;;;;;0.00;0.00;;;;;;;;;;5072779;28;20143;-77
2023/08/23 03:58:43;;;;;;;0.00;0.00;;;;;;;;;;5071318;28;20036;-78
2023/08/23 04:01:09;;;;;;;0.00;0.00;;;;;;;;;;5072819;28;20115;-77
2023/08/23 04:03:35;;;;;;;0.00;0.00;;;;;;;;;;5072400;28;20205;-77
2023/08/23 04:06:02;;;;;;;0.00;0.00;;;;;;;;;;5071409;28;20040;-77
2023/08/23 04:08:28;;;;;;;0.00;0.00;;;;;;;;;;5072656;28;20080;-77
2023/08/23 04:10:54;;;;;;;0.00;0.00;;;;;;;;;;5072558;28;20103;-77
2023/08/23 04:13:20;;;;;;;0.00;0.00;;;;;;;;;;5071191;28;20103;-77
2023/08/23 04:15:46;;;;;;;0.00;0.00;;;;;;;;;;5071368;28;20052;-77
2023/08/23 04:18:12;;;;;;;0.00;0.00;;;;;;;;;;5071025;28;20044;-77
2023/08/23 04:20:39;;;;;;;0.00;0.00;;;;;;;;;;5071538;28;20144;-77
2023/08/23 04:23:05;;;;;;;0.00;0.00;;;;;;;;;;5071119;28;20086;-77
2023/08/23 04:25:31;;;;;;;0.00;0.00;;;;;;;;;;5071711;28;20044;-77
2023/08/23 04:27:57;;;;;;;0.00;0.00;;;;;;;;;;5072650;28;20434;-77
2023/08/23 04:30:23;;;;;;;0.00;0.00;;;;;;;;;;5088394;28;20036;-77
2023/08/23 04:32:49;;;;;;;0.00;0.00;;;;;;;;;;5071730;28;20049;-77
2023/08/23 04:35:15;;;;;;;0.00;0.00;;;;;;;;;;5088200;28;20061;-77
2023/08/23 04:37:41;;;;;;;0.00;0.00;;;;;;;;;;5072473;28;20048;-78
2023/08/23 04:40:08;;;;;;;0.00;0.00;;;;;;;;;;5087623;28;20056;-78
2023/08/23 04:42:34;;;;;;;0.00;0.00;;;;;;;;;;5072837;28;20037;-77
2023/08/23 04:45:00;;;;;;;0.00;0.00;;;;;;;;;;5078278;28;20040;-77
2023/08/23 04:47:31;;;;;;;0.00;0.00;;;;;;;;;;5077560;28;20040;-77
2023/08/23 04:49:57;;;;;;;0.00;0.00;;;;;;;;;;5078799;28;20090;-77
2023/08/23 04:52:23;;;;;;;0.00;0.00;;;;;;;;;;5079045;28;20044;-77
2023/08/23 04:54:49;;;;;;;0.00;0.00;;;;;;;;;;5077598;28;20044;-77
2023/08/23 04:57:15;;;;;;;0.00;0.00;;;;;;;;;;5079045;28;20189;-77
2023/08/23 04:59:42;;;;;;;0.00;0.00;;;;;;;;;;5078515;28;20033;-77
2023/08/23 05:02:08;;;;;;;0.00;0.00;;;;;;;;;;5078791;28;20068;-77
2023/08/23 05:04:34;;;;;;;0.00;0.00;;;;;;;;;;5077654;28;20048;-77
2023/08/23 05:07:00;;;;;;;0.00;0.00;;;;;;;;;;5077503;28;20045;-77
2023/08/23 05:09:28;;;;;;;0.00;0.00;;;;;;;;;;5078160;28;20039;-77
2023/08/23 05:11:54;;;;;;;0.00;0.00;;;;;;;;;;5077663;28;20044;-77
2023/08/23 05:14:20;;;;;;;0.00;0.00;;;;;;;;;;5078503;28;20043;-77
2023/08/23 05:16:46;;;;;;;0.00;0.00;;;;;;;;;;5078690;28;20094;-77
2023/08/23 05:19:12;;;;;;;0.00;0.00;;;;;;;;;;5078491;28;20073;-77
2023/08/23 05:21:39;;;;;;;0.00;0.00;;;;;;;;;;5078736;28;20513;-77
2023/08/23 05:24:05;;;;;;;0.00;0.00;;;;;;;;;;5078442;28;20063;-77
2023/08/23 05:26:31;;;;;;;0.00;0.00;;;;;;;;;;5078711;28;20483;-77
2023/08/23 05:28:57;;;;;;;0.00;0.00;;;;;;;;;;5078354;28;20048;-78
2023/08/23 05:31:23;;;;;;;0.00;0.00;;;;;;;;;;5078630;28;20576;-77
2023/08/23 05:33:49;;;;;;;0.00;0.00;;;;;;;;;;5076872;28;20076;-77
2023/08/23 05:36:15;;;;;;;0.00;0.00;;;;;;;;;;5078530;28;20119;-77
2023/08/23 05:38:41;;;;;;;0.00;0.00;;;;;;;;;;5094291;28;20503;-77
2023/08/23 05:41:07;;;;;;;0.00;0.00;;;;;;;;;;5078355;28;20037;-77
2023/08/23 05:43:33;;;;;;;0.00;0.00;;;;;;;;;;5078368;28;20058;-75
2023/08/23 05:45:59;;;;;;;0.00;0.00;;;;;;;;;;5078110;28;20040;-77
2023/08/23 05:48:25;;;;;;;0.00;0.00;;;;;;;;;;5076958;28;20670;-77
2023/08/23 05:50:51;;;;;;;0.00;0.00;;;;;;;;;;5093620;28;20492;-77
2023/08/23 05:53:20;;;;;;;0.00;0.00;;;;;;;;;;5077060;28;20066;-77
2023/08/23 05:55:47;;;;;;;0.00;0.00;;;;;;;;;;5091507;28;20072;-77
2023/08/23 05:58:14;;;;;;;0.00;0.00;;;;;;;;;;5073875;28;20404;-77
2023/08/23 06:00:40;;;;;;;0.00;0.00;;;;;;;;;;5073374;28;20041;-77
2023/08/23 06:03:06;;;;;;;0.00;0.00;;;;;;;;;;5075226;28;20041;-77
2023/08/23 06:05:32;;;;;;;0.00;0.00;;;;;;;;;;5074928;28;20105;-77
2023/08/23 06:07:58;;;;;;;0.00;0.00;;;;;;;;;;5075125;28;20036;-77
2023/08/23 06:10:24;;;;;;;0.00;0.00;;;;;;;;;;5073106;28;20488;-77
2023/08/23 06:12:50;;;;;;;0.00;0.00;;;;;;;;;;5073604;28;20051;-77
2023/08/23 06:15:16;;;;;;;0.00;0.00;;;;;;;;;;5073140;28;20048;-78
2023/08/23 06:17:42;;;;;;;0.00;0.00;;;;;;;;;;5073373;28;20361;-77
2023/08/23 06:20:08;;;;;;;0.00;0.00;;;;;;;;;;5073328;28;20040;-77
2023/08/23 06:22:34;;;;;;;0.00;0.00;;;;;;;;;;5073420;28;20068;-77
2023/08/23 06:25:00;;;;;;;0.00;0.00;;;;;;;;;;5073778;28;20080;-77
2023/08/23 06:27:26;;;;;;;0.00;0.00;;;;;;;;;;5074007;28;20487;-78
2023/08/23 06:29:52;;;;;;;0.00;0.00;;;;;;;;;;5074112;28;20098;-78
2023/08/23 06:32:19;;;;;;;0.00;0.00;;;;;;;;;;5073103;28;20075;-77
2023/08/23 06:34:45;;;;;;;0.00;0.00;;;;;;;;;;5072416;28;20080;-82
2023/08/23 06:37:11;;;;;;;0.00;0.00;;;;;;;;;;5089981;28;20032;-79
2023/08/23 06:39:37;;;;;;;0.00;0.00;;;;;;;;;;5072835;28;20072;-79
2023/08/23 06:42:03;;;;;;;0.00;0.00;;;;;;;;;;5074274;28;20119;-79
2023/08/23 06:44:30;;;;;;;0.00;0.00;;;;;;;;;;5072631;28;20041;-79
2023/08/23 06:46:56;;;;;;;0.00;0.00;;;;;;;;;;5073093;28;20068;-79
2023/08/23 06:49:22;;;;;;;0.00;0.00;;;;;;;;;;5074231;28;20488;-79
2023/08/23 06:51:48;;;;;;;0.00;0.00;;;;;;;;;;5074118;28;20040;-79
2023/08/23 06:54:14;;;;;;;0.00;0.00;;;;;;;;;;5072796;28;20438;-85
2023/08/23 06:56:40;;;;;;;0.00;0.00;;;;;;;;;;5073620;28;20056;-82
2023/08/23 06:59:06;;;;;;;0.00;0.00;;;;;;;;;;5072624;28;20479;-82
2023/08/23 07:01:32;;;;;;;0.00;0.00;;;;;;;;;;5073660;28;20044;-80
2023/08/23 07:03:58;;;;;;;0.00;0.00;;;;;;;;;;5073768;28;20491;-79
2023/08/23 07:06:24;;;;;;;0.00;0.00;;;;;;;;;;5073288;28;20074;-82
2023/08/23 07:08:50;;;;;;;0.00;0.00;;;;;;;;;;5072654;28;20448;-85
2023/08/23 07:11:16;;;;;;;0.00;0.00;;;;;;;;;;5071874;28;20109;-80
2023/08/23 07:13:41;;;;;;;0.00;0.00;;;;;;;;;;5073606;28;20105;-80
2023/08/23 07:16:07;;;;;;;0.00;0.00;;;;;;;;;;5072011;28;20048;-80
2023/08/23 07:18:34;;;;;;;0.00;0.00;;;;;;;;;;5073553;28;20450;-80
2023/08/23 07:21:00;;;;;;;0.00;0.00;;;;;;;;;;5073342;28;20041;-80
2023/08/23 07:23:26;;;;;;;0.00;0.00;;;;;;;;;;5073466;28;20075;-80
2023/08/23 07:25:52;;;;;;;0.00;0.00;;;;;;;;;;5073291;28;20098;-80
2023/08/23 07:28:18;;;;;;;0.00;0.00;;;;;;;;;;5073441;28;20041;-79
2023/08/23 07:30:49;;;;;;;0.00;0.00;;;;;;;;;;5071753;28;20090;-80
2023/08/23 07:33:15;;;;;;;0.00;0.00;;;;;;;;;;5073366;28;20040;-80
2023/08/23 07:35:41;;;;;;;0.00;0.00;;;;;;;;;;5072993;28;20625;-80
2023/08/23 07:38:07;;;;;;;0.00;0.00;;;;;;;;;;5073255;28;20113;-79
2023/08/23 07:40:35;;;;;;;0.00;0.00;;;;;;;;;;5071521;28;20071;-79
2023/08/23 07:43:01;;;;;;;0.00;0.00;;;;;;;;;;5073356;28;20119;-80
2023/08/23 07:45:27;;;;;;;0.00;0.00;;;;;;;;;;5071800;28;20104;-79
2023/08/23 07:47:53;;;;;;;0.00;0.00;;;;;;;;;;5073018;28;20436;-84
2023/08/23 07:50:19;;;;;;;0.00;0.00;;;;;;;;;;5072926;28;20044;-83
2023/08/23 07:52:45;;;;;;;0.00;0.00;;;;;;;;;;5072072;28;20040;-83
2023/08/23 07:55:11;;;;;;;0.00;0.00;;;;;;;;;;5072660;28;20139;-81
2023/08/23 07:57:37;;;;;;;0.00;0.00;;;;;;;;;;5072632;28;20032;-77
2023/08/23 08:00:03;;;;;;;0.00;0.00;;;;;;;;;;5072851;28;20079;-78
2023/08/23 08:02:30;;;;;;;0.00;0.00;;;;;;;;;;5071529;28;20044;-79
2023/08/23 08:04:56;;;;;;;0.00;0.00;;;;;;;;;;5072596;28;20090;-79
2023/08/23 08:07:22;;;;;;;0.00;0.00;;;;;;;;;;5071243;28;20051;-79
2023/08/23 08:09:48;;;;;;;0.00;0.00;;;;;;;;;;5072487;28;20056;-78
2023/08/23 08:12:14;;;;;;;0.00;0.00;;;;;;;;;;5071037;28;20040;-78
2023/08/23 08:14:42;;;;;;;0.00;0.00;;;;;;;;;;5072558;28;20067;-78
2023/08/23 08:17:09;;;;;;;0.00;0.00;;;;;;;;;;5071327;28;20044;-78
2023/08/23 08:19:35;;;;;;;0.00;0.00;;;;;;;;;;5071510;28;20047;-79
2023/08/23 08:22:01;;;;;;;0.00;0.00;;;;;;;;;;5072076;28;20029;-79
2023/08/23 08:24:28;;;;;;;0.00;0.00;;;;;;;;;;5072584;28;20136;-78
2023/08/23 08:26:54;;;;;;;0.00;0.00;;;;;;;;;;5070807;28;20040;-79
2023/08/23 08:29:20;;;;;;;0.00;0.00;;;;;;;;;;5071187;28;20058;-78
2023/08/23 08:31:50;;;;;;;0.00;0.00;;;;;;;;;;5072027;28;20488;-78
2023/08/23 08:34:16;;;;;;;0.00;0.00;;;;;;;;;;5071135;28;20048;-79
2023/08/23 08:36:42;;;;;;;0.00;0.00;;;;;;;;;;5072131;28;20446;-79
2023/08/23 08:39:08;;;;;;;0.00;0.00;;;;;;;;;;5070840;28;20089;-79
2023/08/23 08:41:34;;;;;;;0.00;0.00;;;;;;;;;;5070819;28;20119;-80
2023/08/23 08:44:00;;;;;;;0.00;0.00;;;;;;;;;;5071096;28;20141;-79
2023/08/23 08:46:26;;;;;;;0.00;0.00;;;;;;;;;;5087853;28;20104;-79
2023/08/23 08:48:52;;;;;;;0.00;0.00;;;;;;;;;;5088008;28;20082;-79
2023/08/23 08:51:20;;;;;;;0.00;0.00;;;;;;;;;;5087900;28;20068;-79
2023/08/23 08:53:51;;;;;;;0.00;0.00;;;;;;;;;;5072792;28;20047;-79
2023/08/23 08:56:19;;;;;;;0.00;0.00;;;;;;;;;;5072364;28;20120;-79
2023/08/23 08:58:45;;;;;;;0.00;0.00;;;;;;;;;;5071368;28;20052;-79
2023/08/23 09:01:13;;;;;;;0.00;0.00;;;;;;;;;;5071003;28;20051;-78
2023/08/23 09:03:40;;;;;;;0.00;0.00;;;;;;;;;;5070935;28;20044;-78
2023/08/23 09:06:07;;;;;;;0.00;0.00;;;;;;;;;;5070645;28;20060;-78
2023/08/23 09:08:34;;;;;;;0.00;0.00;;;;;;;;;;5072184;28;20203;-79
2023/08/23 09:11:00;;;;;;;0.00;0.00;;;;;;;;;;5071852;28;20090;-79
2023/08/23 09:13:26;;;;;;;0.00;0.00;;;;;;;;;;5071254;28;20046;-78
2023/08/23 09:15:55;;;;;;;0.00;0.00;;;;;;;;;;5070899;28;20122;-78
2023/08/23 09:18:21;;;;;;;0.00;0.00;;;;;;;;;;5071095;28;20048;-78
2023/08/23 09:20:47;;;;;;;0.00;0.00;;;;;;;;;;5070726;28;20037;-79
2023/08/23 09:23:13;;;;;;;0.00;0.00;;;;;;;;;;5070551;28;20040;-78
2023/08/23 09:25:39;;;;;;;0.00;0.00;;;;;;;;;;5070680;28;20044;-79
2023/08/23 09:28:11;;;;;;;0.00;0.00;;;;;;;;;;5070357;28;20048;-78
2023/08/23 09:30:37;;;;;;;0.00;0.00;;;;;;;;;;5073022;28;20076;-79
2023/08/23 09:33:03;;;;;;;0.00;0.00;;;;;;;;;;5074366;28;20079;-79
2023/08/23 09:35:29;;;;;;;0.00;0.00;;;;;;;;;;5075789;28;20389;-78
2023/08/23 09:37:55;;;;;;;0.00;0.00;;;;;;;;;;5075618;28;20032;-78
2023/08/23 09:40:27;;;;;;;0.00;0.00;;;;;;;;;;5074196;28;20045;-79
2023/08/23 09:42:53;;;;;;;0.00;0.00;;;;;;;;;;5090988;28;20086;-79
2023/08/23 09:45:23;;;;;;;0.00;0.00;;;;;;;;;;5075406;28;20044;-79
2023/08/23 09:47:53;;;;;;;0.00;0.00;;;;;;;;;;5075447;28;20122;-79
2023/08/23 09:50:20;;;;;;;0.00;0.00;;;;;;;;;;5075455;28;20429;-79
2023/08/23 09:52:49;;;;;;;0.00;0.00;;;;;;;;;;5075319;28;20499;-78
2023/08/23 09:55:15;;;;;;;0.00;0.00;;;;;;;;;;5074013;28;20048;-79
2023/08/23 09:57:42;;;;;;;0.00;0.00;;;;;;;;;;5075038;28;20112;-78
2023/08/23 10:00:08;;;;;;;0.00;0.00;;;;;;;;;;5074012;28;20488;-78
2023/08/23 10:02:34;;;;;;;0.00;0.00;;;;;;;;;;5074986;28;20047;-79
2023/08/23 10:05:01;;;;;;;0.00;0.00;;;;;;;;;;5073723;28;20394;-79
2023/08/23 10:07:27;;;;;;;0.00;0.00;;;;;;;;;;5073626;28;20050;-78
2023/08/23 10:09:54;;;;;;;0.00;0.00;;;;;;;;;;5074646;28;20064;-78
2023/08/23 10:12:21;;;;;;;0.00;0.00;;;;;;;;;;5074214;28;20067;-79
2023/08/23 10:14:49;;;;;;;0.00;0.00;;;;;;;;;;5075152;28;20511;-79
2023/08/23 10:17:16;;;;;;;0.00;0.00;;;;;;;;;;5073779;28;20556;-78
2023/08/23 10:19:42;;;;;;;0.00;0.00;;;;;;;;;;5074760;28;20036;-78
2023/08/23 10:22:08;;;;;;;0.00;0.00;;;;;;;;;;5074933;28;20044;-79
2023/08/23 10:24:35;;;;;;;0.00;0.00;;;;;;;;;;5073336;28;20049;-79
2023/08/23 10:27:04;;;;;;;0.00;0.00;;;;;;;;;;5074458;28;20480;-78
2023/08/23 10:29:31;;;;;;;0.00;0.00;;;;;;;;;;5074724;28;20037;-78
2023/08/23 10:31:58;;;;;;;0.00;0.00;;;;;;;;;;5073013;28;20165;-79
2023/08/23 10:34:24;;;;;;;0.00;0.00;;;;;;;;;;5073748;28;20379;-78
2023/08/23 10:36:51;;;;;;;0.00;0.00;;;;;;;;;;5074436;28;20549;-77
2023/08/23 10:39:20;;;;;;;0.00;0.00;;;;;;;;;;5074557;28;20047;-78
2023/08/23 10:41:46;;;;;;;0.00;0.00;;;;;;;;;;5073619;28;20112;-77
2023/08/23 10:44:15;;;;;;;0.00;0.00;;;;;;;;;;5073434;28;20106;-78
2023/08/23 10:46:45;;;;;;;0.00;0.00;;;;;;;;;;5073099;28;20040;-78
2023/08/23 10:49:16;;;;;;;0.00;0.00;;;;;;;;;;5073012;28;20040;-79
2023/08/23 10:51:42;;;;;;;0.00;0.00;;;;;;;;;;5073303;28;20537;-78
2023/08/23 10:54:12;;;;;;;0.00;0.00;;;;;;;;;;5072825;28;20132;-78
2023/08/23 10:56:38;;;;;;;0.00;0.00;;;;;;;;;;5072970;28;20506;-79
2023/08/23 10:59:06;;;;;;;0.00;0.00;;;;;;;;;;5074081;28;20041;-78
2023/08/23 11:01:33;;;;;;;0.00;0.00;;;;;;;;;;5072926;28;20049;-79
2023/08/23 11:03:59;;;;;;;0.00;0.00;;;;;;;;;;5074042;28;20391;-78
2023/08/23 11:06:27;;;;;;;0.00;0.00;;;;;;;;;;5074157;28;20044;-78
2023/08/23 11:08:53;;;;;;;0.28;0.10;;;;;;;;;;5072518;28;20051;-78
2023/08/23 11:11:19;;;;;;;0.00;0.00;;;;;;;;;;5073836;28;20512;-78
2023/08/23 11:13:47;;;;;;;0.00;0.00;;;;;;;;;;5073880;28;20055;-78
2023/08/23 11:16:13;;;;;;;0.00;0.00;;;;;;;;;;5072502;28;20076;-78
2023/08/23 11:18:40;;;;;;;0.00;0.00;;;;;;;;;;5072228;28;20044;-78
2023/08/23 11:21:06;;;;;;;0.00;0.00;;;;;;;;;;5072313;28;20068;-79
2023/08/23 11:23:36;;;;;;;0.00;0.00;;;;;;;;;;5073792;28;20036;-78
2023/08/23 11:26:03;;;;;;;0.00;0.00;;;;;;;;;;5072806;28;20041;-78
2023/08/23 11:28:30;;;;;;;0.00;0.00;;;;;;;;;;5073589;28;20076;-78
2023/08/23 11:30:58;;;;;;;0.00;0.00;;;;;;;;;;5072638;28;20044;-78
2023/08/23 11:33:24;;;;;;;0.00;0.00;;;;;;;;;;5073356;28;20047;-78
2023/08/23 11:35:50;;;;;;;0.00;0.00;;;;;;;;;;5073749;28;20036;-78
2023/08/23 11:38:16;;;;;;;0.00;0.00;;;;;;;;;;5072161;28;20040;-78
2023/08/23 11:40:44;;;;;;;0.00;0.00;;;;;;;;;;5072350;28;20044;-78
2023/08/23 11:43:14;;;;;;;0.00;0.00;;;;;;;;;;5072001;28;20042;-78
2023/08/23 11:45:41;;;;;;;0.00;0.00;;;;;;;;;;5072264;28;20504;-78
2023/08/23 11:48:07;;;;;;;0.00;0.00;;;;;;;;;;5073215;28;20040;-78
2023/08/23 11:50:33;;;;;;;0.00;0.00;;;;;;;;;;5072250;28;20480;-78
2023/08/23 11:53:02;;;;;;;0.00;0.00;;;;;;;;;;5073562;28;20048;-78
2023/08/23 11:55:28;;;;;;;0.03;0.03;;;;;;;;;;5073529;28;20388;-78
2023/08/23 11:57:54;;;;;;;0.00;0.00;;;;;;;;;;5073119;28;20036;-78
2023/08/23 12:00:21;;;;;;;0.00;0.00;;;;;;;;;;5071649;28;20127;-78
2023/08/23 12:02:47;;;;;;;0.00;0.00;;;;;;;;;;5072604;28;20135;-78
2023/08/23 12:05:14;;;;;;;0.00;0.00;;;;;;;;;;5073363;28;20080;-77
2023/08/23 12:07:41;;;;;;;0.22;0.10;;;;;;;;;;5088831;28;20048;-78
2023/08/23 12:10:11;;;;;;;0.00;0.00;;;;;;;;;;5072842;28;20102;-78
2023/08/23 12:12:37;;;;;;;0.00;0.00;;;;;;;;;;5071765;28;20045;-78
2023/08/23 12:15:04;;;;;;;0.00;0.00;;;;;;;;;;5071707;28;20050;-77
2023/08/23 12:17:30;;;;;;;0.00;0.00;;;;;;;;;;5072945;28;20510;-77
2023/08/23 12:19:56;;;;;;;0.00;0.00;;;;;;;;;;5072800;28;20119;-77
2023/08/23 12:22:22;;;;;;;0.00;0.00;;;;;;;;;;5071712;28;20484;-77
2023/08/23 12:24:48;;;;;;;0.00;0.00;;;;;;;;;;5072863;28;20028;-77
2023/08/23 12:27:14;;;;;;;0.00;0.00;;;;;;;;;;5071821;28;20525;-77
2023/08/23 12:29:41;;;;;;;0.00;0.00;;;;;;;;;;5072477;28;20056;-77
2023/08/23 12:32:07;;;;;;;0.00;0.00;;;;;;;;;;5071674;28;20466;-77
2023/08/23 12:34:33;;;;;;;0.00;0.00;;;;;;;;;;5087913;28;20504;-77
2023/08/23 12:37:00;;;;;;;0.00;0.00;;;;;;;;;;5072222;28;20371;-78
2023/08/23 12:39:26;;;;;;;0.00;0.00;;;;;;;;;;5071819;28;20056;-78
2023/08/23 12:41:52;;;;;;;0.00;0.00;;;;;;;;;;5087658;28;20394;-77
2023/08/23 12:44:18;;;;;;;0.00;0.00;;;;;;;;;;5070743;28;20041;-77
2023/08/23 12:46:44;;;;;;;0.00;0.00;;;;;;;;;;5070770;28;20048;-77
2023/08/23 12:49:13;;;;;;;0.00;0.00;;;;;;;;;;5070661;28;20085;-78
2023/08/23 12:51:39;;;;;;;0.10;0.05;;;;;;;;;;5070899;28;20040;-78
2023/08/23 12:54:06;;;;;;;0.00;0.00;;;;;;;;;;5072263;28;20037;-77
2023/08/23 12:56:33;;;;;;;0.00;0.00;;;;;;;;;;5071034;28;20132;-77
2023/08/23 12:58:59;;;;;;;0.00;0.00;;;;;;;;;;5070737;28;20127;-77
2023/08/23 13:01:25;;;;;;;0.00;0.00;;;;;;;;;;5071071;28;20032;-77
2023/08/23 13:03:51;;;;;;;0.00;0.00;;;;;;;;;;5071167;28;20044;-77
2023/08/23 13:06:17;;;;;;;0.00;0.00;;;;;;;;;;5076082;28;20052;-77
2023/08/23 13:08:43;;;;;;;0.00;0.00;;;;;;;;;;5074785;28;20044;-77
2023/08/23 13:11:09;;;;;;;0.00;0.00;;;;;;;;;;5074498;28;20518;-77
2023/08/23 13:13:39;;;;;;;0.00;0.00;;;;;;;;;;5075823;28;20040;-77
2023/08/23 13:16:05;;;;;;;0.00;0.00;;;;;;;;;;5074850;28;20052;-77
2023/08/23 13:18:31;;;;;;;0.00;0.00;;;;;;;;;;5075858;28;20456;-76
2023/08/23 13:20:57;;;;;;;0.00;0.00;;;;;;;;;;5075901;28;20040;-77
2023/08/23 13:23:23;;;;;;;0.00;0.00;;;;;;;;;;5074278;28;20047;-77
2023/08/23 13:25:49;;;;;;;0.00;0.00;;;;;;;;;;5091319;28;20488;-77
2023/08/23 13:28:15;;;;;;;0.00;0.00;;;;;;;;;;5074339;28;20044;-77
2023/08/23 13:30:41;;;;;;;0.00;0.00;;;;;;;;;;5074305;28;20048;-77
2023/08/23 13:33:07;;;;;;;0.00;0.00;;;;;;;;;;5074287;28;20074;-77
2023/08/23 13:35:33;;;;;;;0.00;0.00;;;;;;;;;;5075364;28;20458;-77
2023/08/23 13:37:59;;;;;;;0.00;0.00;;;;;;;;;;5074320;28;20143;-77
2023/08/23 13:40:25;;;;;;;0.00;0.00;;;;;;;;;;5073743;28;20055;-77
2023/08/23 13:42:51;;;;;;;0.00;0.00;;;;;;;;;;5074098;28;20036;-77
2023/08/23 13:45:18;;;;;;;0.00;0.00;;;;;;;;;;5074337;28;20395;-77
2023/08/23 13:47:44;;;;;;;0.00;0.00;;;;;;;;;;5074420;28;20048;-77
2023/08/23 13:50:10;;;;;;;0.00;0.00;;;;;;;;;;5074319;28;20047;-77
2023/08/23 13:52:36;;;;;;;0.00;0.00;;;;;;;;;;5075616;28;20090;-77
2023/08/23 13:55:03;;;;;;;0.00;0.00;;;;;;;;;;5075042;28;20040;-77
2023/08/23 13:57:30;;;;;;;0.00;0.00;;;;;;;;;;5090934;28;20068;-77
2023/08/23 13:59:56;;;;;;;0.00;0.00;;;;;;;;;;5073919;28;20391;-77
2023/08/23 14:02:22;;;;;;;0.00;0.00;;;;;;;;;;5073707;28;20119;-77
2023/08/23 14:04:47;;;;;;;0.00;0.00;;;;;;;;;;5073457;28;20036;-78
2023/08/23 14:07:15;;;;;;;0.00;0.00;;;;;;;;;;5075023;28;20037;-78
2023/08/23 14:09:41;;;;;;;0.00;0.00;;;;;;;;;;5074561;28;20111;-78
2023/08/23 14:12:07;;;;;;;0.00;0.00;;;;;;;;;;5075391;28;20125;-78
2023/08/23 14:14:33;;;;;;;0.00;0.00;;;;;;;;;;5073378;28;20040;-78
2023/08/23 14:16:59;;;;;;;0.00;0.00;;;;;;;;;;5073429;28;20488;-78
2023/08/23 14:19:26;;;;;;;0.00;0.00;;;;;;;;;;5074590;28;20041;-78
2023/08/23 14:21:51;;;;;;;0.00;0.00;;;;;;;;;;5073757;28;20086;-78
2023/08/23 14:24:17;;;;;;;0.00;0.00;;;;;;;;;;5073123;28;20526;-78
2023/08/23 14:26:43;;;;;;;0.00;0.00;;;;;;;;;;5074874;28;20044;-78
2023/08/23 14:29:09;;;;;;;0.00;0.00;;;;;;;;;;5073224;28;20084;-77
2023/08/23 14:31:35;;;;;;;0.00;0.00;;;;;;;;;;5073221;28;20507;-78
2023/08/23 14:34:01;;;;;;;0.00;0.00;;;;;;;;;;5074324;28;20033;-78
2023/08/23 14:36:27;;;;;;;0.00;0.00;;;;;;;;;;5073025;28;20475;-78
2023/08/23 14:38:53;;;;;;;0.00;0.00;;;;;;;;;;5074350;28;20036;-78